Time;durP1;ratioP1;P1;durP2;ratioP2;P2;SDS_P1;SDS_P2;PMS_P1;PMS_P2;Temp;Humidity;BMP_temperature;BMP_pressure;BME280_temperature;BME280_humidity;BME280_pressure;Samples;Min_cycle;Max_cycle;Signal;HPM_P1;HPM_P2
2022/07/12 00:01:29;;;;;;;60.97;50.83;;;25.40;56.90;;;;;;4996046;27;95787;-53
2022/07/12 00:03:55;;;;;;;61.28;50.75;;;25.40;57.00;;;;;;4996911;27;91175;-52
2022/07/12 00:06:21;;;;;;;60.90;50.75;;;25.40;56.90;;;;;;4993766;27;91726;-50
2022/07/12 00:08:47;;;;;;;60.88;50.80;;;25.40;56.90;;;;;;5003223;27;91002;-48
2022/07/12 00:11:12;;;;;;;61.70;51.15;;;25.40;56.90;;;;;;5003734;27;94935;-52
2022/07/12 00:13:38;;;;;;;61.03;50.95;;;25.40;57.10;;;;;;5001655;27;90827;-52
2022/07/12 00:16:04;;;;;;;61.13;50.90;;;25.40;57.00;;;;;;5003881;27;90973;-52
2022/07/12 00:18:29;;;;;;;61.35;50.95;;;25.40;57.00;;;;;;4997207;27;91150;-51
2022/07/12 00:20:55;;;;;;;61.00;50.90;;;25.40;57.00;;;;;;4995025;27;91531;-51
2022/07/12 00:23:21;;;;;;;61.20;50.70;;;25.40;57.00;;;;;;5002588;27;92992;-52
2022/07/12 00:25:47;;;;;;;60.63;50.78;;;25.30;57.00;;;;;;5003237;27;95591;-54
2022/07/12 00:28:12;;;;;;;61.08;51.00;;;25.40;57.10;;;;;;5005313;27;90346;-48
2022/07/12 00:30:38;;;;;;;61.03;50.78;;;25.30;57.00;;;;;;4992799;27;97356;-49
2022/07/12 00:33:03;;;;;;;61.45;51.03;;;25.30;57.00;;;;;;5004853;27;92367;-52
2022/07/12 00:35:29;;;;;;;61.35;50.70;;;25.30;57.00;;;;;;5001982;27;90028;-52
2022/07/12 00:37:55;;;;;;;60.45;50.65;;;25.30;57.10;;;;;;4990192;27;92828;-51
2022/07/12 00:40:20;;;;;;;60.95;50.92;;;25.20;57.10;;;;;;5003637;27;91390;-53
2022/07/12 00:42:47;;;;;;;61.40;50.85;;;25.30;57.20;;;;;;5016741;27;90207;-50
2022/07/12 00:45:13;;;;;;;60.83;50.83;;;25.30;57.10;;;;;;5000318;27;95374;-54
2022/07/12 00:47:50;;;;;;;61.42;51.10;;;25.20;57.10;;;;;;4996043;27;89746;-50
2022/07/12 00:50:21;;;;;;;60.97;50.80;;;25.20;57.20;;;;;;4991964;27;91990;-50
2022/07/12 00:52:48;;;;;;;60.45;50.60;;;25.20;57.10;;;;;;4999505;27;90523;-49
2022/07/12 00:55:15;;;;;;;61.15;50.67;;;25.20;57.20;;;;;;4998025;27;92622;-49
2022/07/12 00:57:47;;;;;;;61.20;50.92;;;25.20;57.20;;;;;;5000115;27;92572;-52
2022/07/12 01:00:15;;;;;;;60.70;50.65;;;25.20;57.20;;;;;;4995151;27;95182;-53
2022/07/12 01:02:44;;;;;;;60.90;51.10;;;25.20;57.20;;;;;;5003216;27;91547;-53
2022/07/12 01:05:10;;;;;;;61.33;50.80;;;25.20;57.20;;;;;;5001487;27;90597;-52
2022/07/12 01:07:37;;;;;;;60.92;50.92;;;25.20;57.20;;;;;;4995907;27;95798;-51
2022/07/12 01:10:05;;;;;;;60.47;50.80;;;25.20;57.20;;;;;;5006204;27;92526;-56
2022/07/12 01:12:31;;;;;;;60.47;50.55;;;25.20;57.30;;;;;;5011834;27;89652;-49
2022/07/12 01:14:58;;;;;;;60.58;51.03;;;25.20;57.20;;;;;;5003198;27;90780;-52
2022/07/12 01:17:26;;;;;;;60.72;51.00;;;25.20;57.20;;;;;;4992155;27;91908;-51
2022/07/12 01:19:55;;;;;;;61.33;50.95;;;25.10;57.20;;;;;;4999013;27;91771;-49
2022/07/12 01:22:35;;;;;;;60.92;50.97;;;25.10;57.60;;;;;;4997626;27;92983;-51
2022/07/12 01:25:03;;;;;;;60.83;50.78;;;25.10;57.20;;;;;;5004104;27;89884;-52
2022/07/12 01:27:30;;;;;;;60.28;50.80;;;25.10;57.30;;;;;;5004260;27;90754;-51
2022/07/12 01:29:55;;;;;;;60.90;50.85;;;25.10;57.20;;;;;;4998430;27;92636;-47
2022/07/12 01:32:24;;;;;;;61.17;50.88;;;25.10;57.20;;;;;;4981267;27;94348;-50
2022/07/12 01:34:54;;;;;;;60.45;50.65;;;25.10;57.30;;;;;;5000524;27;89996;-52
2022/07/12 01:37:22;;;;;;;60.67;50.90;;;25.10;57.30;;;;;;4987165;27;90578;-48
2022/07/12 01:39:52;;;;;;;60.88;50.45;;;25.10;57.30;;;;;;5015945;27;91084;-47
2022/07/12 01:42:19;;;;;;;60.70;50.75;;;25.10;57.40;;;;;;4998879;27;92488;-49
2022/07/12 01:44:44;;;;;;;60.42;50.75;;;25.10;57.40;;;;;;5004212;27;92335;-51
2022/07/12 01:47:11;;;;;;;60.67;50.95;;;25.00;57.30;;;;;;5001798;27;89804;-54
2022/07/12 01:49:37;;;;;;;60.40;50.70;;;25.00;57.40;;;;;;4996350;27;90942;-50
2022/07/12 01:52:03;;;;;;;60.67;50.95;;;25.10;57.50;;;;;;4997269;27;90200;-51
2022/07/12 01:54:29;;;;;;;60.70;50.80;;;25.00;57.50;;;;;;5008795;27;94102;-54
2022/07/12 01:56:55;;;;;;;60.42;50.85;;;25.00;57.50;;;;;;4997889;27;91813;-54
2022/07/12 01:59:21;;;;;;;60.80;50.65;;;24.90;57.60;;;;;;4999066;27;93207;-52
2022/07/12 02:01:48;;;;;;;60.47;50.92;;;24.90;57.70;;;;;;4995495;27;90727;-52
2022/07/12 02:04:17;;;;;;;61.45;51.05;;;24.90;57.90;;;;;;5001365;27;90032;-52
2022/07/12 02:06:44;;;;;;;60.83;50.85;;;24.90;57.90;;;;;;4999354;27;91986;-47
2022/07/12 02:09:11;;;;;;;60.95;51.10;;;24.90;57.90;;;;;;4989552;27;91744;-54
2022/07/12 02:11:36;;;;;;;60.67;50.70;;;24.90;58.10;;;;;;5006120;27;91889;-52
2022/07/12 02:14:02;;;;;;;63.45;51.05;;;24.80;58.10;;;;;;4994072;27;92320;-52
2022/07/12 02:16:27;;;;;;;60.40;50.80;;;24.80;58.10;;;;;;4995841;27;91755;-52
2022/07/12 02:18:53;;;;;;;60.17;50.72;;;24.70;58.20;;;;;;5004551;27;93997;-54
2022/07/12 02:21:19;;;;;;;60.85;50.92;;;24.70;58.30;;;;;;5006527;27;95229;-51
2022/07/12 02:23:44;;;;;;;60.58;50.85;;;24.70;58.30;;;;;;4994727;27;95387;-51
2022/07/12 02:26:10;;;;;;;60.50;50.70;;;24.70;58.30;;;;;;5002239;27;88800;-51
2022/07/12 02:28:36;;;;;;;60.88;50.95;;;24.70;58.30;;;;;;4992434;27;91155;-53
2022/07/12 02:31:01;;;;;;;60.42;50.92;;;24.70;58.40;;;;;;5002750;27;91351;-50
2022/07/12 02:33:27;;;;;;;60.75;50.70;;;24.70;58.50;;;;;;5001025;27;93318;-53
2022/07/12 02:35:52;;;;;;;60.53;50.85;;;24.70;58.50;;;;;;5010153;27;90556;-53
2022/07/12 02:38:20;;;;;;;60.83;50.83;;;24.60;58.50;;;;;;5000637;27;95436;-54
2022/07/12 02:40:55;;;;;;;60.10;50.40;;;24.60;58.60;;;;;;5002069;27;92531;-53
2022/07/12 02:43:25;;;;;;;60.15;50.70;;;24.60;58.50;;;;;;5001310;27;90274;-50
2022/07/12 02:45:52;;;;;;;60.85;50.80;;;24.60;58.60;;;;;;4976550;27;90720;-53
2022/07/12 02:48:18;;;;;;;60.90;50.95;;;24.50;58.70;;;;;;4995365;27;91150;-53
2022/07/12 02:50:44;;;;;;;60.47;50.60;;;24.50;58.60;;;;;;4994810;27;93655;-53
2022/07/12 02:53:10;;;;;;;60.75;51.05;;;24.50;58.70;;;;;;5000076;27;91636;-54
2022/07/12 02:55:37;;;;;;;60.10;50.55;;;24.50;58.70;;;;;;4999805;27;91560;-52
2022/07/12 02:58:05;;;;;;;60.30;50.60;;;24.50;58.70;;;;;;5010354;27;92843;-55
2022/07/12 03:00:31;;;;;;;62.00;50.67;;;24.50;58.80;;;;;;5001036;27;90681;-55
2022/07/12 03:02:57;;;;;;;60.00;50.67;;;24.50;58.80;;;;;;4999643;27;92095;-53
2022/07/12 03:05:22;;;;;;;60.28;50.53;;;24.50;58.80;;;;;;4998222;27;90742;-56
2022/07/12 03:07:48;;;;;;;60.22;50.65;;;24.40;58.90;;;;;;4995324;27;94210;-55
2022/07/12 03:10:13;;;;;;;61.10;50.92;;;24.40;58.90;;;;;;4996574;27;90306;-54
2022/07/12 03:12:39;;;;;;;60.45;50.78;;;24.40;59.00;;;;;;5004654;27;90114;-55
2022/07/12 03:15:06;;;;;;;59.80;50.58;;;24.40;58.90;;;;;;4994442;27;90512;-54
2022/07/12 03:17:32;;;;;;;60.00;50.60;;;24.40;58.90;;;;;;5010237;27;91919;-52
2022/07/12 03:19:58;;;;;;;60.22;50.63;;;24.40;59.00;;;;;;4993902;27;92038;-53
2022/07/12 03:22:24;;;;;;;60.45;50.65;;;24.40;59.00;;;;;;4997842;27;91318;-51
2022/07/12 03:24:50;;;;;;;60.25;50.58;;;24.40;59.00;;;;;;4991032;27;90446;-54
2022/07/12 03:27:15;;;;;;;59.85;50.63;;;24.40;59.10;;;;;;4997559;27;91115;-54
2022/07/12 03:29:41;;;;;;;59.72;50.55;;;24.30;59.00;;;;;;4990782;27;92212;-51
2022/07/12 03:32:07;;;;;;;61.50;50.65;;;24.30;59.10;;;;;;5011271;27;91269;-55
2022/07/12 03:34:33;;;;;;;59.80;50.53;;;24.30;59.00;;;;;;4996097;27;95910;-54
2022/07/12 03:36:59;;;;;;;60.17;50.47;;;24.30;59.10;;;;;;5006066;27;92137;-52
2022/07/12 03:39:25;;;;;;;60.72;50.97;;;24.30;59.10;;;;;;5003491;27;93767;-51
2022/07/12 03:41:51;;;;;;;59.95;50.67;;;24.20;59.10;;;;;;5003037;27;90702;-49
2022/07/12 03:44:16;;;;;;;60.20;50.85;;;24.20;59.20;;;;;;5010473;27;89830;-49
2022/07/12 03:46:42;;;;;;;59.72;50.45;;;24.20;59.20;;;;;;5000985;27;91185;-51
2022/07/12 03:49:08;;;;;;;59.65;50.45;;;24.20;59.20;;;;;;4984133;27;94582;-48
2022/07/12 03:51:33;;;;;;;59.67;50.45;;;24.20;59.20;;;;;;5007246;27;92295;-54
2022/07/12 03:53:59;;;;;;;60.65;50.67;;;24.20;59.10;;;;;;5013910;27;91825;-53
2022/07/12 03:59:09;;;;;;;59.97;50.70;;;24.20;59.20;;;;;;5001423;27;91268;-52
2022/07/12 04:01:34;;;;;;;59.92;50.60;;;24.20;59.20;;;;;;5004621;27;90300;-55
2022/07/12 04:04:01;;;;;;;59.80;50.72;;;24.10;59.30;;;;;;5008134;27;89975;-54
2022/07/12 04:06:27;;;;;;;60.22;50.67;;;24.20;59.40;;;;;;4988729;27;95428;-53
2022/07/12 04:08:52;;;;;;;60.22;50.85;;;24.20;59.30;;;;;;4998597;27;92190;-50
2022/07/12 04:11:18;;;;;;;60.63;50.70;;;24.10;59.90;;;;;;5008869;27;91003;-52
2022/07/12 04:13:44;;;;;;;60.45;50.85;;;24.10;59.30;;;;;;4995796;27;91643;-52
2022/07/12 04:16:09;;;;;;;60.00;50.63;;;24.10;59.30;;;;;;4981928;27;91228;-52
2022/07/12 04:18:35;;;;;;;60.15;50.70;;;24.10;59.30;;;;;;5004665;27;89938;-52
2022/07/12 04:21:00;;;;;;;59.83;50.63;;;24.20;59.30;;;;;;4996738;27;95268;-55
2022/07/12 04:23:26;;;;;;;60.03;50.72;;;24.20;59.10;;;;;;5002128;27;92616;-51
2022/07/12 04:25:52;;;;;;;59.55;50.47;;;24.20;59.00;;;;;;4994555;27;91362;-53
2022/07/12 04:28:17;;;;;;;60.08;50.70;;;24.20;58.90;;;;;;5004334;27;89741;-54
2022/07/12 04:30:44;;;;;;;60.25;50.75;;;24.30;58.80;;;;;;5002851;27;94795;-55
2022/07/12 04:33:10;;;;;;;60.35;51.03;;;24.30;58.70;;;;;;5005517;27;90569;-51
2022/07/12 04:35:37;;;;;;;60.42;50.95;;;24.30;58.70;;;;;;4994250;27;95134;-49
2022/07/12 04:38:03;;;;;;;59.97;50.63;;;24.40;58.70;;;;;;4995824;27;90609;-52
2022/07/12 04:40:30;;;;;;;60.42;50.85;;;24.40;58.60;;;;;;5004915;27;90831;-55
2022/07/12 04:42:56;;;;;;;60.25;50.75;;;24.40;58.70;;;;;;4999337;27;90861;-54
2022/07/12 04:45:22;;;;;;;60.65;50.85;;;24.40;58.60;;;;;;5001841;27;93690;-50
2022/07/12 04:47:47;;;;;;;60.75;51.05;;;24.30;58.50;;;;;;5006853;27;91437;-53
2022/07/12 04:50:13;;;;;;;61.33;51.15;;;24.40;58.50;;;;;;5001322;27;92055;-54
2022/07/12 04:52:38;;;;;;;60.05;50.75;;;24.40;58.50;;;;;;4995152;27;90570;-50
2022/07/12 04:55:06;;;;;;;61.17;51.00;;;24.40;58.50;;;;;;4995471;27;90350;-51
2022/07/12 04:57:31;;;;;;;60.38;50.70;;;24.40;58.40;;;;;;5005414;27;97844;-51
2022/07/12 04:59:57;;;;;;;60.25;51.08;;;24.40;58.30;;;;;;4977494;27;92548;-53
2022/07/12 05:02:22;;;;;;;59.67;50.80;;;24.40;58.20;;;;;;5004184;27;90549;-50
2022/07/12 05:04:48;;;;;;;60.90;51.13;;;24.40;58.70;;;;;;4973060;27;93920;-50
2022/07/12 05:07:14;;;;;;;60.72;51.15;;;24.40;58.20;;;;;;4991384;27;90771;-53
2022/07/12 05:09:39;;;;;;;60.25;50.85;;;24.40;58.20;;;;;;5004745;27;91921;-53
2022/07/12 05:12:06;;;;;;;60.20;50.75;;;24.40;58.20;;;;;;4992383;27;94198;-54
2022/07/12 05:14:31;;;;;;;60.70;51.05;;;24.40;58.20;;;;;;4999164;27;91684;-53
2022/07/12 05:16:57;;;;;;;59.83;50.40;;;24.40;58.10;;;;;;5002316;27;92447;-53
2022/07/12 05:19:23;;;;;;;60.85;50.95;;;24.40;58.00;;;;;;5003983;27;92151;-55
2022/07/12 05:21:49;;;;;;;60.70;50.83;;;24.40;57.90;;;;;;4993150;27;89728;-51
2022/07/12 05:24:15;;;;;;;60.75;50.95;;;24.40;58.00;;;;;;5004117;27;91615;-51
2022/07/12 05:26:41;;;;;;;59.80;50.78;;;24.40;57.90;;;;;;5001495;27;90164;-54
2022/07/12 05:29:07;;;;;;;60.25;50.67;;;24.40;58.00;;;;;;4992446;27;96337;-54
2022/07/12 05:31:32;;;;;;;60.60;50.72;;;24.40;57.90;;;;;;5006906;27;90028;-52
2022/07/12 05:33:59;;;;;;;60.00;50.50;;;24.40;57.90;;;;;;5006676;27;90971;-54
2022/07/12 05:36:24;;;;;;;60.35;50.80;;;24.40;57.90;;;;;;5003383;27;91590;-50
2022/07/12 05:38:50;;;;;;;60.40;50.92;;;24.40;57.90;;;;;;4995259;27;90521;-55
2022/07/12 05:41:16;;;;;;;60.17;50.60;;;24.50;57.90;;;;;;5007070;27;90370;-55
2022/07/12 05:43:41;;;;;;;60.17;50.95;;;24.40;57.80;;;;;;4998314;27;92355;-50
2022/07/12 05:46:08;;;;;;;61.08;51.13;;;24.40;57.90;;;;;;4991618;27;92275;-54
2022/07/12 05:48:34;;;;;;;60.55;51.08;;;24.40;57.80;;;;;;5002449;27;91496;-54
2022/07/12 05:53:21;;;;;;;59.85;50.67;;;24.40;57.90;;;;;;4995556;27;91186;-54
2022/07/12 05:53:45;;;;;;;60.10;50.65;;;24.50;57.80;;;;;;5003190;27;91268;-53
2022/07/12 05:56:12;;;;;;;60.40;51.05;;;24.50;57.80;;;;;;4993511;27;91434;-51
2022/07/12 05:58:38;;;;;;;60.30;51.00;;;24.40;57.80;;;;;;4988418;27;92386;-50
2022/07/12 06:01:03;;;;;;;59.92;50.58;;;24.50;57.90;;;;;;5002983;27;96424;-52
2022/07/12 06:03:29;;;;;;;59.60;50.47;;;24.50;57.90;;;;;;4994335;27;91019;-53
2022/07/12 06:05:54;;;;;;;60.85;50.42;;;24.50;58.10;;;;;;5005023;27;89774;-53
2022/07/12 06:08:20;;;;;;;60.30;50.70;;;24.50;58.20;;;;;;4997051;27;94612;-54
2022/07/12 06:10:46;;;;;;;59.97;50.60;;;24.50;58.10;;;;;;5003255;27;91351;-52
2022/07/12 06:13:11;;;;;;;61.05;50.85;;;24.50;58.10;;;;;;5002118;27;97260;-53
2022/07/12 06:15:37;;;;;;;60.55;50.92;;;24.60;58.10;;;;;;4991599;27;90573;-55
2022/07/12 06:18:03;;;;;;;60.08;50.72;;;24.60;58.20;;;;;;4999121;27;91421;-53
2022/07/12 06:20:29;;;;;;;59.97;50.53;;;24.60;58.40;;;;;;4997694;27;92450;-53
2022/07/12 06:22:55;;;;;;;60.20;50.80;;;24.60;58.40;;;;;;4997930;27;90873;-52
2022/07/12 06:25:21;;;;;;;60.28;50.78;;;24.60;58.40;;;;;;4995969;27;91040;-53
2022/07/12 06:27:47;;;;;;;60.97;51.03;;;24.60;58.40;;;;;;5004383;27;91711;-51
2022/07/12 06:30:18;;;;;;;61.80;51.30;;;24.60;58.30;;;;;;5000817;27;89938;-53
2022/07/12 06:32:46;;;;;;;62.72;50.97;;;24.60;58.40;;;;;;4989004;27;89571;-52
2022/07/12 06:35:12;;;;;;;61.10;51.03;;;24.60;58.40;;;;;;4996117;27;91108;-52
2022/07/12 06:37:37;;;;;;;62.15;50.97;;;24.70;58.50;;;;;;4999280;27;91713;-52
2022/07/12 06:40:04;;;;;;;62.10;51.35;;;24.70;58.50;;;;;;4991156;27;90139;-54
2022/07/12 06:42:29;;;;;;;61.22;51.30;;;24.70;58.50;;;;;;4988447;27;91723;-51
2022/07/12 06:44:55;;;;;;;61.05;51.10;;;24.70;58.50;;;;;;5003287;27;90787;-49
2022/07/12 06:47:21;;;;;;;61.35;51.13;;;24.70;58.50;;;;;;4984904;27;95299;-53
2022/07/12 06:49:46;;;;;;;62.25;51.45;;;24.70;58.60;;;;;;4996315;27;90065;-51
2022/07/12 06:52:12;;;;;;;60.92;51.25;;;24.70;58.50;;;;;;5002555;27;94651;-53
2022/07/12 06:54:38;;;;;;;63.92;51.45;;;24.70;58.50;;;;;;4997284;27;90449;-51
2022/07/12 06:57:04;;;;;;;61.92;51.28;;;24.70;58.50;;;;;;4993672;27;90306;-53
2022/07/12 06:59:29;;;;;;;63.30;51.22;;;24.70;58.60;;;;;;4996371;27;90190;-54
2022/07/12 07:01:57;;;;;;;61.85;51.58;;;24.70;58.50;;;;;;5013547;27;91352;-52
2022/07/12 07:04:23;;;;;;;62.15;51.30;;;24.70;58.60;;;;;;5003062;27;91209;-51
2022/07/12 07:06:49;;;;;;;62.65;51.20;;;24.70;58.60;;;;;;4988060;27;90208;-50
2022/07/12 07:09:15;;;;;;;61.70;51.47;;;24.70;58.60;;;;;;4976219;27;90253;-49
2022/07/12 07:11:41;;;;;;;62.47;51.28;;;24.70;58.60;;;;;;5001922;27;91690;-55
2022/07/12 07:14:07;;;;;;;62.10;51.30;;;24.70;58.60;;;;;;4995693;27;95870;-50
2022/07/12 07:16:32;;;;;;;62.22;51.42;;;24.70;58.60;;;;;;4998886;27;90186;-54
2022/07/12 07:18:58;;;;;;;63.30;51.22;;;24.70;58.60;;;;;;4995279;27;91476;-49
2022/07/12 07:21:24;;;;;;;63.22;51.75;;;24.70;58.60;;;;;;4991903;27;95785;-52
2022/07/12 07:23:50;;;;;;;62.80;51.63;;;24.80;58.60;;;;;;4994903;27;91556;-50
2022/07/12 07:26:16;;;;;;;64.68;52.03;;;24.70;58.70;;;;;;4991482;27;92016;-52
2022/07/12 07:31:26;;;;;;;63.08;51.58;;;24.80;58.60;;;;;;5001814;27;89818;-48
2022/07/12 07:33:52;;;;;;;63.10;51.15;;;24.80;58.60;;;;;;5000622;27;91267;-49
2022/07/12 07:36:17;;;;;;;62.33;51.75;;;24.80;58.60;;;;;;4990796;27;92267;-51
2022/07/12 07:38:43;;;;;;;63.50;51.55;;;24.80;58.70;;;;;;4996261;27;91573;-50
2022/07/12 07:41:09;;;;;;;63.10;52.08;;;24.80;58.70;;;;;;5003050;27;96909;-52
2022/07/12 07:43:34;;;;;;;63.65;51.65;;;24.80;58.70;;;;;;5001853;27;89069;-54
2022/07/12 07:46:01;;;;;;;62.45;51.75;;;24.80;58.60;;;;;;4997348;27;95164;-52
2022/07/12 07:48:27;;;;;;;62.50;51.78;;;24.80;58.30;;;;;;4997899;27;91418;-55
2022/07/12 07:50:53;;;;;;;62.30;51.47;;;24.80;58.40;;;;;;4989852;27;92486;-53
2022/07/12 07:53:19;;;;;;;65.20;51.70;;;24.80;58.40;;;;;;4993070;27;91647;-54
2022/07/12 07:55:44;;;;;;;63.58;51.83;;;24.80;58.30;;;;;;5002338;27;93376;-50
2022/07/12 07:58:10;;;;;;;63.22;51.85;;;24.80;58.20;;;;;;5008716;27;92880;-55
2022/07/12 08:00:36;;;;;;;63.15;51.80;;;24.80;58.30;;;;;;4997423;27;91794;-54
2022/07/12 08:03:02;;;;;;;61.70;51.65;;;24.80;58.20;;;;;;5002465;27;92635;-50
2022/07/12 08:05:28;;;;;;;64.28;51.63;;;24.80;58.00;;;;;;5008144;27;89970;-51
2022/07/12 08:07:53;;;;;;;62.20;51.80;;;24.80;58.10;;;;;;5002359;27;90328;-52
2022/07/12 08:10:19;;;;;;;65.82;51.80;;;24.80;58.30;;;;;;4998949;27;91137;-50
2022/07/12 08:12:45;;;;;;;62.28;51.65;;;24.90;58.30;;;;;;4985554;27;90740;-51
2022/07/12 08:15:10;;;;;;;63.65;51.78;;;24.90;58.20;;;;;;5005442;27;91821;-53
2022/07/12 08:17:37;;;;;;;62.45;51.45;;;24.90;58.30;;;;;;5000250;27;90726;-50
2022/07/12 08:20:06;;;;;;;64.10;51.67;;;24.80;57.90;;;;;;4997072;27;90524;-54
2022/07/12 08:22:32;;;;;;;63.13;51.80;;;24.90;58.10;;;;;;5000718;27;90811;-49
2022/07/12 08:24:57;;;;;;;63.72;51.63;;;24.90;58.40;;;;;;5008244;27;94702;-51
2022/07/12 08:27:23;;;;;;;64.45;51.83;;;24.90;58.30;;;;;;5005025;27;95441;-56
2022/07/12 08:29:49;;;;;;;62.33;51.53;;;24.90;58.30;;;;;;5001628;27;90941;-51
2022/07/12 08:32:15;;;;;;;63.22;51.97;;;24.90;58.30;;;;;;5008211;27;92123;-52
2022/07/12 08:34:41;;;;;;;63.28;51.50;;;24.90;58.40;;;;;;5013416;27;89949;-51
2022/07/12 08:37:07;;;;;;;63.08;51.78;;;24.90;58.30;;;;;;5007457;27;91428;-54
2022/07/12 08:39:32;;;;;;;62.63;51.72;;;24.90;58.40;;;;;;5000712;27;92634;-53
2022/07/12 08:41:58;;;;;;;64.07;52.03;;;24.90;58.20;;;;;;4990476;27;90515;-52
2022/07/12 08:44:24;;;;;;;63.28;51.75;;;24.90;58.20;;;;;;5007639;27;91069;-51
2022/07/12 08:46:49;;;;;;;62.90;51.70;;;24.90;58.10;;;;;;5005868;27;90343;-55
2022/07/12 08:49:15;;;;;;;63.78;52.17;;;24.90;58.00;;;;;;4994832;27;95137;-51
2022/07/12 08:51:41;;;;;;;65.15;52.38;;;24.90;58.20;;;;;;5009419;27;96189;-52
2022/07/12 08:54:08;;;;;;;64.97;52.28;;;24.90;58.20;;;;;;5004171;27;90749;-52
2022/07/12 08:56:39;;;;;;;64.00;52.13;;;25.00;58.10;;;;;;4999790;27;90028;-52
2022/07/12 08:59:18;;;;;;;63.80;52.15;;;25.00;58.10;;;;;;5004110;27;91376;-54
2022/07/12 09:01:50;;;;;;;63.88;51.90;;;25.00;58.20;;;;;;5014086;27;90052;-51
2022/07/12 09:04:25;;;;;;;62.65;52.03;;;25.00;58.10;;;;;;5007662;27;91153;-50
2022/07/12 09:06:51;;;;;;;64.85;52.33;;;25.00;58.00;;;;;;5004573;27;90363;-52
2022/07/12 09:09:31;;;;;;;64.63;52.08;;;25.00;58.10;;;;;;5000762;27;95310;-52
2022/07/12 09:11:57;;;;;;;64.30;52.20;;;25.00;58.20;;;;;;5002262;27;92362;-54
2022/07/12 09:14:23;;;;;;;64.75;52.17;;;25.00;58.10;;;;;;4987587;27;91144;-54
2022/07/12 09:17:03;;;;;;;65.05;52.25;;;25.00;58.10;;;;;;4998170;27;91583;-55
2022/07/12 09:19:29;;;;;;;64.25;52.35;;;25.00;58.10;;;;;;4998115;27;93388;-52
2022/07/12 09:21:55;;;;;;;64.65;52.17;;;25.00;58.10;;;;;;4997734;27;89808;-53
2022/07/12 09:24:24;;;;;;;63.75;52.28;;;25.00;58.10;;;;;;4991160;27;92199;-53
2022/07/12 09:26:56;;;;;;;66.32;52.28;;;25.00;58.10;;;;;;4999020;27;94429;-52
2022/07/12 09:29:22;;;;;;;64.05;52.13;;;24.90;58.10;;;;;;4990052;27;92392;-51
2022/07/12 09:37:18;;;;;;;63.22;52.33;;;24.90;58.00;;;;;;5004379;27;94907;-53
2022/07/12 09:39:45;;;;;;;64.72;52.00;;;25.00;58.10;;;;;;5012920;27;90879;-55
2022/07/12 09:42:12;;;;;;;64.05;52.42;;;25.00;58.00;;;;;;4997882;27;90931;-55
2022/07/12 09:44:42;;;;;;;63.40;52.22;;;25.00;58.10;;;;;;5000257;27;91401;-51
2022/07/12 09:47:13;;;;;;;65.05;52.45;;;25.00;58.10;;;;;;4999239;27;89507;-49
2022/07/12 09:49:45;;;;;;;;;;;25.00;58.10;;;;;;4999054;27;91704;-53
2022/07/12 09:52:27;;;;;;;63.55;52.13;;;25.00;58.20;;;;;;4992894;27;91212;-52
2022/07/12 09:54:55;;;;;;;62.85;52.08;;;25.00;58.20;;;;;;4986541;27;96401;-50
2022/07/12 09:57:32;;;;;;;65.50;52.58;;;25.00;58.20;;;;;;4995286;27;90500;-52
2022/07/12 09:59:59;;;;;;;66.07;52.35;;;25.20;58.00;;;;;;5003484;27;93336;-55
2022/07/12 10:02:26;;;;;;;64.07;52.70;;;25.50;57.70;;;;;;4993693;27;96702;-52
2022/07/12 10:04:52;;;;;;;64.68;52.90;;;25.70;57.70;;;;;;5004072;27;95239;-50
2022/07/12 10:07:19;;;;;;;68.70;53.00;;;25.80;57.80;;;;;;4993573;27;94526;-54
2022/07/12 10:09:51;;;;;;;64.38;52.55;;;25.80;57.90;;;;;;5004272;27;90639;-54
2022/07/12 10:12:18;;;;;;;64.15;52.45;;;25.90;58.10;;;;;;5002590;27;90619;-55
2022/07/12 10:14:45;;;;;;;64.18;52.63;;;25.90;58.20;;;;;;5005726;27;92198;-55
2022/07/12 10:17:12;;;;;;;65.40;52.70;;;25.90;58.30;;;;;;4998531;27;90180;-53
2022/07/12 10:19:39;;;;;;;63.65;52.55;;;26.00;58.60;;;;;;4996010;27;93157;-50
2022/07/12 10:22:07;;;;;;;68.03;52.83;;;26.00;58.80;;;;;;5000668;27;91462;-54
2022/07/12 10:24:33;;;;;;;68.65;52.50;;;26.00;58.90;;;;;;5005452;27;93339;-52
2022/07/12 10:27:13;;;;;;;64.88;52.95;;;26.00;58.90;;;;;;5000302;27;91560;-53
2022/07/12 10:29:40;;;;;;;66.35;52.65;;;26.10;59.10;;;;;;4997678;27;91157;-54
2022/07/12 10:32:24;;;;;;;66.40;52.63;;;26.10;59.20;;;;;;4992844;27;90293;-54
2022/07/12 10:35:05;;;;;;;64.13;53.05;;;26.10;59.30;;;;;;4995943;27;91321;-55
2022/07/12 10:37:32;;;;;;;64.82;52.50;;;26.10;59.30;;;;;;4981879;27;91832;-56
2022/07/12 10:40:18;;;;;;;64.20;52.80;;;26.20;59.40;;;;;;4990793;27;92010;-49
2022/07/12 10:43:05;;;;;;;64.78;52.40;;;26.20;59.30;;;;;;4981199;27;91788;-52
2022/07/12 10:45:38;;;;;;;65.57;52.80;;;26.20;59.40;;;;;;4987702;27;93084;-53
2022/07/12 10:48:18;;;;;;;64.53;52.78;;;26.20;59.40;;;;;;5004549;27;90806;-52
2022/07/12 10:53:18;;;;;;;65.43;52.95;;;26.20;59.60;;;;;;5006930;27;91715;-54
2022/07/12 10:56:04;;;;;;;63.38;52.42;;;26.30;59.40;;;;;;4995925;27;90505;-53
2022/07/12 10:58:37;;;;;;;66.63;52.95;;;26.30;59.10;;;;;;4991937;27;90045;-52
2022/07/12 11:01:06;;;;;;;66.63;52.80;;;26.30;58.90;;;;;;4996846;27;91844;-54
2022/07/12 11:03:39;;;;;;;66.50;53.10;;;26.30;58.80;;;;;;4993498;27;91047;-52
2022/07/12 11:06:05;;;;;;;65.47;52.63;;;26.30;58.80;;;;;;4992589;27;91247;-51
2022/07/12 11:08:31;;;;;;;64.80;52.92;;;26.30;58.80;;;;;;5003157;27;92627;-54
2022/07/12 11:10:58;;;;;;;64.70;52.75;;;26.30;58.80;;;;;;4992186;27;96185;-51
2022/07/12 11:13:25;;;;;;;65.22;52.65;;;26.30;58.70;;;;;;4999475;27;89991;-52
2022/07/12 11:16:00;;;;;;;64.70;52.78;;;26.20;58.60;;;;;;4997449;27;90433;-54
2022/07/12 11:18:34;;;;;;;66.20;52.83;;;26.30;58.70;;;;;;4995030;27;95019;-53
2022/07/12 11:21:01;;;;;;;65.38;52.88;;;26.20;58.50;;;;;;5004869;27;91166;-55
2022/07/12 11:23:28;;;;;;;65.80;53.05;;;26.30;58.50;;;;;;4989478;27;90600;-52
2022/07/12 11:25:58;;;;;;;66.00;52.65;;;26.30;58.40;;;;;;4991033;27;90898;-51
2022/07/12 11:28:26;;;;;;;65.70;52.72;;;26.30;58.30;;;;;;5003561;27;90336;-50
2022/07/12 11:30:52;;;;;;;65.80;52.78;;;26.30;58.30;;;;;;4999884;27;95852;-52
2022/07/12 11:33:24;;;;;;;64.65;52.80;;;26.30;58.30;;;;;;4976936;27;91156;-55
2022/07/12 11:35:50;;;;;;;65.97;52.70;;;26.30;58.20;;;;;;4985529;27;91642;-52
2022/07/12 11:38:27;;;;;;;67.00;52.80;;;26.30;58.20;;;;;;4995705;27;90302;-55
2022/07/12 11:40:56;;;;;;;64.65;52.70;;;26.30;58.00;;;;;;4992434;27;90423;-50
2022/07/12 11:43:23;;;;;;;66.05;52.72;;;26.30;58.10;;;;;;4987671;27;95106;-49
2022/07/12 11:45:49;;;;;;;68.00;53.30;;;26.30;58.00;;;;;;4990617;27;90896;-54
2022/07/12 11:48:15;;;;;;;67.68;53.30;;;26.50;58.70;;;;;;5000595;27;91728;-53
2022/07/12 11:50:44;;;;;;;69.05;53.28;;;26.50;59.00;;;;;;5007998;27;90488;-54
2022/07/12 11:53:20;;;;;;;69.00;53.63;;;26.50;59.50;;;;;;4982694;27;91319;-56
2022/07/12 11:55:47;;;;;;;69.47;53.17;;;26.50;59.50;;;;;;4987971;27;89972;-55
2022/07/12 11:58:14;;;;;;;66.68;53.28;;;26.40;59.70;;;;;;4994266;27;89719;-57
2022/07/12 12:00:40;;;;;;;67.88;53.10;;;26.30;59.80;;;;;;5011543;27;93466;-56
2022/07/12 12:03:06;;;;;;;66.93;53.40;;;26.30;59.80;;;;;;5000401;27;95168;-56
2022/07/12 12:05:33;;;;;;;70.53;53.55;;;26.30;59.80;;;;;;5002523;27;92037;-56
2022/07/12 12:07:58;;;;;;;68.03;53.05;;;26.20;59.70;;;;;;4989866;27;90477;-54
2022/07/12 12:10:24;;;;;;;67.95;53.40;;;26.20;59.60;;;;;;5005527;27;90994;-55
2022/07/12 12:12:52;;;;;;;70.57;53.38;;;26.20;59.60;;;;;;4998218;27;92193;-57
2022/07/12 12:15:21;;;;;;;67.07;53.25;;;26.20;59.60;;;;;;4998048;27;92784;-56
2022/07/12 12:17:55;;;;;;;67.22;53.72;;;26.20;59.60;;;;;;5002785;27;91263;-55
2022/07/12 12:20:26;;;;;;;65.93;53.17;;;26.20;59.50;;;;;;4996586;27;94427;-55
2022/07/12 12:22:53;;;;;;;67.95;53.80;;;26.20;59.50;;;;;;4997003;27;91891;-57
2022/07/12 12:25:20;;;;;;;87.55;69.95;;;26.20;59.50;;;;;;4997306;27;91704;-53
2022/07/12 12:27:54;;;;;;;127.97;97.53;;;26.10;59.40;;;;;;5002230;27;91063;-55
2022/07/12 12:30:19;;;;;;;169.90;123.18;;;26.20;59.50;;;;;;4993101;27;91411;-56
2022/07/12 12:32:56;;;;;;;161.00;116.28;;;26.10;59.40;;;;;;5000198;27;90171;-53
2022/07/12 12:35:33;;;;;;;183.63;123.40;;;26.10;59.30;;;;;;4988019;27;90408;-56
2022/07/12 12:38:10;;;;;;;178.75;121.93;;;26.20;59.30;;;;;;4996292;27;90750;-57
2022/07/12 12:40:37;;;;;;;175.73;121.57;;;26.10;59.20;;;;;;5002337;27;92203;-55